Time;durP1;ratioP1;P1;durP2;ratioP2;P2;SDS_P1;SDS_P2;PMS_P1;PMS_P2;Temp;Humidity;BMP_temperature;BMP_pressure;BME280_temperature;BME280_humidity;BME280_pressure;Samples;Min_cycle;Max_cycle;Signal;HPM_P1;HPM_P2
2022/04/07 00:01:45;;;;;;;;;2.00;2.00;;;;;11.18;74.09;99168.69;5057823;28;45543;-64
2022/04/07 00:04:11;;;;;;;;;2.75;2.00;;;;;11.15;74.12;99161.00;5056420;28;46967;-64
2022/04/07 00:06:37;;;;;;;;;1.00;1.00;;;;;11.14;73.74;99159.31;5057446;28;45473;-65
2022/04/07 00:09:03;;;;;;;;;4.00;2.25;;;;;11.11;74.34;99159.53;5057271;28;45292;-65
2022/04/07 00:11:29;;;;;;;;;2.00;2.00;;;;;11.14;74.41;99150.59;5039352;28;45383;-64
2022/04/07 00:13:54;;;;;;;;;4.00;2.50;;;;;11.10;74.05;99134.16;5056217;28;45751;-65
2022/04/07 00:16:20;;;;;;;;;2.00;2.00;;;;;11.09;74.38;99132.47;5055727;28;45359;-67
2022/04/07 00:18:46;;;;;;;;;3.00;1.00;;;;;11.09;74.38;99132.47;5055270;28;45242;-65
2022/04/07 00:21:12;;;;;;;;;1.25;1.25;;;;;11.05;73.91;99121.28;5036494;28;45674;-65
2022/04/07 00:23:39;;;;;;;;;5.00;2.00;;;;;11.05;74.11;99125.72;5036243;28;47131;-65
2022/04/07 00:26:04;;;;;;;;;3.00;1.25;;;;;11.01;74.46;99126.88;5018658;28;45356;-64
2022/04/07 00:28:30;;;;;;;;;1.00;1.00;;;;;11.05;74.14;99113.38;5034960;28;45435;-65
2022/04/07 00:30:58;;;;;;;;;2.25;2.25;;;;;11.07;74.19;99123.81;5036708;28;45465;-67
2022/04/07 00:33:23;;;;;;;;;2.00;2.00;;;;;11.07;73.96;99118.56;5036439;28;45904;-64
2022/04/07 00:35:49;;;;;;;;;4.00;2.50;;;;;11.09;74.01;99121.94;5036171;28;45332;-64
2022/04/07 00:38:15;;;;;;;;;2.25;2.00;;;;;11.11;73.82;99120.06;5036864;28;45364;-63
2022/04/07 00:40:40;;;;;;;;;2.00;2.00;;;;;11.14;74.08;99116.38;5037013;28;45564;-64
2022/04/07 00:43:06;;;;;;;;;1.00;1.00;;;;;11.16;73.90;99117.97;5036608;28;45394;-64
2022/04/07 00:45:32;;;;;;;;;5.75;2.00;;;;;11.16;73.92;99102.16;5036662;28;45397;-63
2022/04/07 00:47:58;;;;;;;;;3.00;1.75;;;;;11.16;73.26;99102.16;5036563;28;45289;-62
2022/04/07 00:50:24;;;;;;;;;2.25;2.25;;;;;11.18;73.72;99099.44;5035467;28;45271;-64
2022/04/07 00:52:52;;;;;;;;;3.00;2.00;;;;;11.19;73.51;99093.25;5035972;28;45470;-64
2022/04/07 00:55:19;;;;;;;;;1.25;1.25;;;;;11.19;72.98;99077.44;5051619;28;45838;-65
2022/04/07 00:57:45;;;;;;;;;1.00;1.00;;;;;11.21;73.18;99075.56;5056282;28;45401;-65
2022/04/07 01:00:13;;;;;;;;;2.25;2.00;;;;;11.22;73.20;99083.34;5056526;28;45319;-67
2022/04/07 01:02:38;;;;;;;;;1.00;1.00;;;;;11.21;73.09;99063.22;5056318;28;45344;-64
2022/04/07 01:05:04;;;;;;;;;3.00;1.00;;;;;11.22;72.98;99048.28;5056153;28;45223;-65
2022/04/07 01:07:32;;;;;;;;;1.50;1.00;;;;;11.22;72.77;99054.38;5056534;28;45512;-64
2022/04/07 01:09:59;;;;;;;;;2.00;2.00;;;;;11.21;72.60;99039.53;5055373;28;45419;-64
2022/04/07 01:12:24;;;;;;;;;3.50;2.00;;;;;11.20;73.02;99024.69;5056210;28;45481;-65
2022/04/07 01:14:54;;;;;;;;;1.50;1.50;;;;;11.24;72.86;99020.06;5056249;28;45349;-62
2022/04/07 01:17:20;;;;;;;;;1.00;1.00;;;;;11.24;72.92;99020.91;5056427;28;45272;-62
2022/04/07 01:19:46;;;;;;;;;3.00;2.00;;;;;11.27;72.80;99021.63;5056312;28;45312;-61
2022/04/07 01:22:11;;;;;;;;;1.25;1.25;;;;;11.28;72.70;99012.78;5037155;28;46448;-61
2022/04/07 01:24:37;;;;;;;;;1.00;1.00;;;;;11.24;72.37;99010.38;5056109;28;45325;-63
2022/04/07 01:27:03;;;;;;;;;4.00;2.00;;;;;11.23;72.94;99013.94;5056234;28;45352;-60
2022/04/07 01:29:29;;;;;;;;;4.25;3.00;;;;;11.25;72.82;99011.22;5056248;28;45415;-60
2022/04/07 01:31:54;;;;;;;;;0.00;0.00;;;;;11.21;73.09;99002.69;5055916;28;45587;-61
2022/04/07 01:34:20;;;;;;;;;1.00;1.00;;;;;11.22;73.22;99011.44;5054892;28;45397;-61
2022/04/07 01:36:51;;;;;;;;;4.00;1.00;;;;;11.23;73.23;99006.06;5056458;28;45327;-62
2022/04/07 01:39:21;;;;;;;;;2.75;1.75;;;;;11.17;73.49;99010.91;5038533;28;45549;-64
2022/04/07 01:41:47;;;;;;;;;3.75;1.50;;;;;11.18;73.00;98994.19;5055988;28;46335;-60
2022/04/07 01:44:15;;;;;;;;;1.00;1.00;;;;;11.18;73.45;98997.63;5055758;28;45247;-63
2022/04/07 01:46:40;;;;;;;;;2.50;2.00;;;;;11.17;73.96;99003.84;5056018;28;45296;-62
2022/04/07 01:49:07;;;;;;;;;2.75;2.00;;;;;11.16;73.69;98983.75;5037875;28;45412;-63
2022/04/07 01:51:35;;;;;;;;;1.50;1.00;;;;;11.15;73.81;98978.59;5055453;28;45527;-64
2022/04/07 01:54:01;;;;;;;;;3.00;2.00;;;;;11.15;73.88;98979.41;5037459;28;45430;-64
2022/04/07 01:56:30;;;;;;;;;1.25;1.00;;;;;11.16;73.73;98978.47;5037701;28;45362;-64
2022/04/07 01:58:56;;;;;;;;;1.75;1.75;;;;;11.16;74.25;98960.06;5055654;28;45505;-65
2022/04/07 02:01:21;;;;;;;;;3.25;1.00;;;;;11.18;74.64;98967.84;5055599;28;45350;-63
2022/04/07 02:03:47;;;;;;;;;1.00;1.00;;;;;11.12;76.28;98966.47;5055808;28;45303;-66
2022/04/07 02:06:14;;;;;;;;;4.00;1.25;;;;;11.08;77.32;98967.63;5055665;28;45424;-64
2022/04/07 02:08:40;;;;;;;;;2.25;2.25;;;;;11.01;77.34;98955.84;5055735;28;45570;-61
2022/04/07 02:11:06;;;;;;;;;1.25;1.00;;;;;10.94;77.90;98964.16;5054742;28;45663;-63
2022/04/07 02:13:34;;;;;;;;;3.00;1.50;;;;;10.91;78.35;98964.38;5055373;28;45401;-64
2022/04/07 02:16:01;;;;;;;;;6.00;2.00;;;;;10.91;78.64;98964.38;5055475;28;45311;-60
2022/04/07 02:18:27;;;;;;;;;4.75;1.75;;;;;10.89;78.51;98963.63;5055601;28;45497;-60
2022/04/07 02:20:52;;;;;;;;;6.75;2.00;;;;;10.87;78.91;98960.25;5055138;28;45552;-63
2022/04/07 02:23:17;;;;;;;;;1.25;1.25;;;;;10.88;78.84;98967.19;5055504;28;45319;-64
2022/04/07 02:25:43;;;;;;;;;1.00;1.00;;;;;10.86;78.62;98950.69;5055468;28;45319;-65
2022/04/07 02:28:08;;;;;;;;;1.00;1.00;;;;;10.88;79.14;98948.78;5055338;28;45342;-64
2022/04/07 02:30:34;;;;;;;;;1.25;1.25;;;;;10.91;78.93;98945.09;5049010;28;47280;-63
2022/04/07 02:32:59;;;;;;;;;3.75;1.50;;;;;10.94;78.61;98937.00;5053483;28;45446;-65
2022/04/07 02:35:24;;;;;;;;;3.00;2.00;;;;;10.96;78.72;98927.19;5055120;28;45368;-63
2022/04/07 02:37:50;;;;;;;;;2.75;1.00;;;;;10.97;79.00;98915.72;5055838;28;45458;-65
2022/04/07 02:40:15;;;;;;;;;3.50;2.00;;;;;10.99;79.57;98907.75;5053659;28;46851;-64
2022/04/07 02:42:41;;;;;;;;;3.00;1.00;;;;;10.99;80.02;98907.75;5054948;28;45419;-63
2022/04/07 02:45:07;;;;;;;;;1.25;1.25;;;;;10.98;80.45;98908.69;5055200;28;45193;-64
2022/04/07 02:47:35;;;;;;;;;1.50;1.50;;;;;10.96;80.26;98893.00;5055132;28;45193;-61
2022/04/07 02:50:00;;;;;;;;;2.50;2.50;;;;;10.93;80.94;98888.81;5054551;28;46125;-64
2022/04/07 02:52:26;;;;;;;;;2.00;1.00;;;;;10.89;81.29;98887.34;5054698;28;45427;-62
2022/04/07 02:54:52;;;;;;;;;1.75;1.00;;;;;10.87;81.67;98876.06;5055390;28;45472;-64
2022/04/07 02:57:22;;;;;;;;;1.50;1.50;;;;;10.88;81.60;98877.75;5054526;28;45516;-66
2022/04/07 02:59:47;;;;;;;;;1.00;1.00;;;;;10.88;81.88;98861.97;5054362;28;45556;-68
2022/04/07 03:02:13;;;;;;;;;1.00;1.00;;;;;10.88;82.07;98864.63;5054846;28;45280;-65
2022/04/07 03:04:38;;;;;;;;;3.75;2.00;;;;;10.86;81.78;98855.97;5041209;28;45802;-65
2022/04/07 03:07:04;;;;;;;;;2.50;1.00;;;;;10.87;82.48;98848.91;5034297;28;45626;-65
2022/04/07 03:09:29;;;;;;;;;4.50;2.00;;;;;10.85;82.90;98835.88;5034519;28;45401;-62
2022/04/07 03:11:54;;;;;;;;;2.50;1.50;;;;;10.86;82.33;98848.09;5034408;28;45316;-62
2022/04/07 03:14:20;;;;;;;;;3.50;3.00;;;;;10.85;82.62;98828.00;5034849;28;45357;-62
2022/04/07 03:16:48;;;;;;;;;4.25;3.00;;;;;10.87;82.65;98831.38;5034683;28;45494;-61
2022/04/07 03:19:15;;;;;;;;;1.25;1.25;;;;;10.88;82.78;98813.78;5033968;28;46720;-63
2022/04/07 03:21:41;;;;;;;;;1.75;1.75;;;;;10.89;82.96;98813.69;5034292;28;45328;-62
2022/04/07 03:24:06;;;;;;;;;1.75;1.75;;;;;10.89;82.65;98804.94;5036924;28;45263;-64
2022/04/07 03:26:31;;;;;;;;;4.50;2.00;;;;;10.88;82.89;98804.09;5038113;28;45481;-63
2022/04/07 03:28:57;;;;;;;;;6.25;2.75;;;;;10.91;83.34;98792.50;5037817;28;45983;-63
2022/04/07 03:31:22;;;;;;;;;5.75;2.00;;;;;10.91;83.00;98780.22;5037010;28;45304;-63
2022/04/07 03:33:47;;;;;;;;;2.00;1.00;;;;;10.90;83.58;98768.00;5037910;28;45713;-64
2022/04/07 03:36:13;;;;;;;;;2.00;2.00;;;;;10.85;83.24;98745.59;5038043;28;45179;-62
2022/04/07 03:38:38;;;;;;;;;3.25;2.00;;;;;10.93;83.94;98752.00;5037495;28;46257;-63
2022/04/07 03:41:06;;;;;;;;;3.75;2.00;;;;;10.92;83.92;98760.00;5037506;28;45237;-66
2022/04/07 03:43:31;;;;;;;;;3.75;2.25;;;;;10.92;83.55;98747.69;5037619;28;45474;-64
2022/04/07 03:45:57;;;;;;;;;3.50;3.00;;;;;10.93;83.84;98730.97;5036337;28;45474;-66
2022/04/07 03:48:22;;;;;;;;;3.50;2.50;;;;;10.95;84.33;98712.44;5037555;28;45360;-61
2022/04/07 03:50:47;;;;;;;;;4.50;4.50;;;;;10.98;83.93;98706.94;5037271;28;45403;-63
2022/04/07 03:53:13;;;;;;;;;4.00;2.00;;;;;10.97;84.02;98697.38;5037551;28;45442;-64
2022/04/07 03:55:38;;;;;;;;;4.50;3.00;;;;;11.00;84.46;98694.53;5037639;28;45574;-65
2022/04/07 03:58:03;;;;;;;;;2.50;2.50;;;;;10.98;84.17;98672.75;5037100;28;46878;-63
2022/04/07 04:00:30;;;;;;;;;5.75;3.00;;;;;11.00;84.55;98670.03;5037155;28;45384;-65
2022/04/07 04:02:56;;;;;;;;;1.00;1.00;;;;;11.01;84.45;98666.44;5037513;28;45256;-61
2022/04/07 04:05:22;;;;;;;;;1.75;1.75;;;;;11.02;84.52;98668.13;5037786;28;45500;-63
2022/04/07 04:07:48;;;;;;;;;3.00;3.00;;;;;11.02;85.13;98670.75;5037053;28;46216;-64
2022/04/07 04:10:14;;;;;;;;;4.25;3.25;;;;;11.04;84.68;98661.78;5037075;28;45249;-63
2022/04/07 04:12:39;;;;;;;;;3.00;3.00;;;;;11.05;84.78;98662.63;5037161;28;45316;-61
2022/04/07 04:15:05;;;;;;;;;6.50;2.00;;;;;11.06;84.58;98648.53;5037255;28;45259;-61
2022/04/07 04:17:32;;;;;;;;;3.25;2.00;;;;;11.09;84.49;98653.56;5036921;28;45403;-64
2022/04/07 04:19:57;;;;;;;;;2.00;2.00;;;;;11.12;84.30;98642.81;5036738;28;45348;-62
2022/04/07 04:22:23;;;;;;;;;3.50;3.50;;;;;11.14;84.74;98635.63;5037348;28;45319;-65
2022/04/07 04:24:48;;;;;;;;;0.00;0.00;;;;;11.15;84.62;98642.59;5037408;28;45526;-65
2022/04/07 04:27:14;;;;;;;;;4.25;1.50;;;;;11.17;84.24;98638.06;5036692;28;46382;-64
2022/04/07 04:29:43;;;;;;;;;2.00;2.00;;;;;11.20;84.18;98629.09;5036864;28;45375;-66
2022/04/07 04:32:11;;;;;;;;;3.50;3.50;;;;;11.19;84.09;98619.53;5036887;28;45251;-64
2022/04/07 04:34:36;;;;;;;;;4.00;2.25;;;;;11.24;84.03;98615.59;5036630;28;45336;-62
2022/04/07 04:37:02;;;;;;;;;1.00;1.00;;;;;11.28;84.10;98637.25;5036465;28;45851;-62
2022/04/07 04:39:27;;;;;;;;;2.00;2.00;;;;;11.32;84.74;98632.59;5018991;28;45382;-62
2022/04/07 04:41:53;;;;;;;;;2.00;2.00;;;;;11.35;84.16;98635.00;5018998;28;45458;-62
2022/04/07 04:44:18;;;;;;;;;2.00;2.00;;;;;11.36;84.44;98616.47;5018819;28;45608;-61
2022/04/07 04:46:43;;;;;;;;;3.00;3.00;;;;;11.37;83.75;98614.66;5036331;28;45425;-64
2022/04/07 04:49:09;;;;;;;;;1.50;1.50;;;;;11.36;83.60;98608.56;5036261;28;45376;-64
2022/04/07 04:51:34;;;;;;;;;2.50;2.50;;;;;11.39;84.05;98602.22;5036476;28;45249;-64
2022/04/07 04:54:00;;;;;;;;;2.00;2.00;;;;;11.44;83.71;98609.78;5036528;28;45518;-63
2022/04/07 04:56:27;;;;;;;;;1.75;1.75;;;;;11.45;83.95;98595.66;5036374;28;45538;-63
2022/04/07 04:58:57;;;;;;;;;2.75;2.75;;;;;11.46;83.28;98602.63;5036114;28;45201;-63
2022/04/07 05:01:23;;;;;;;;;3.00;3.00;;;;;11.48;83.40;98596.25;5018026;28;45281;-60
2022/04/07 05:03:49;;;;;;;;;2.25;2.25;;;;;11.49;83.01;98595.31;5036411;28;45632;-63
2022/04/07 05:06:14;;;;;;;;;2.00;1.75;;;;;11.52;82.53;98610.03;5035822;28;46469;-62
2022/04/07 05:08:40;;;;;;;;;4.25;3.25;;;;;11.53;82.54;98583.59;5018841;28;45380;-63
2022/04/07 05:11:05;;;;;;;;;3.50;2.00;;;;;11.57;82.50;98586.84;5036787;28;45273;-62
2022/04/07 05:13:31;;;;;;;;;5.00;2.00;;;;;11.60;82.39;98580.47;5018800;28;45300;-64
2022/04/07 05:15:56;;;;;;;;;3.00;1.00;;;;;11.60;82.89;98576.06;5036454;28;45313;-61
2022/04/07 05:18:21;;;;;;;;;3.00;2.00;;;;;11.63;82.81;98577.59;5036079;28;45212;-63
2022/04/07 05:20:47;;;;;;;;;3.50;2.00;;;;;11.63;82.63;98559.19;5036014;28;45222;-63
2022/04/07 05:23:12;;;;;;;;;2.50;1.75;;;;;11.67;82.87;98573.81;5036197;28;45653;-60
2022/04/07 05:25:37;;;;;;;;;4.00;2.00;;;;;11.66;82.51;98567.69;5035555;28;45375;-65
2022/04/07 05:28:03;;;;;;;;;4.25;2.00;;;;;11.69;82.59;98566.63;5035925;28;45293;-65
2022/04/07 05:30:29;;;;;;;;;4.00;3.00;;;;;11.72;82.05;98570.81;5018202;28;45300;-64
2022/04/07 05:32:55;;;;;;;;;5.50;2.00;;;;;11.73;81.99;98554.06;5036246;28;45236;-66
2022/04/07 05:35:20;;;;;;;;;2.50;2.00;;;;;11.76;81.27;98556.44;5035713;28;45634;-62
2022/04/07 05:37:46;;;;;;;;;1.25;1.25;;;;;11.79;80.93;98543.03;5035539;28;45421;-62
2022/04/07 05:40:12;;;;;;;;;1.50;1.50;;;;;11.82;80.94;98545.44;5035998;28;45339;-65
2022/04/07 05:42:38;;;;;;;;;3.00;0.00;;;;;11.84;80.35;98535.63;5035836;28;45409;-63
2022/04/07 05:45:05;;;;;;;;;1.75;1.75;;;;;11.87;79.87;98542.44;5034824;28;45423;-66
2022/04/07 05:47:37;;;;;;;;;2.75;2.75;;;;;11.89;79.62;98528.19;5035208;28;45325;-65
2022/04/07 05:50:03;;;;;;;;;3.00;1.00;;;;;11.92;79.07;98524.50;5035569;28;45336;-65
2022/04/07 05:52:28;;;;;;;;;1.00;1.00;;;;;11.95;79.32;98518.97;5035939;28;45612;-63
2022/04/07 05:54:53;;;;;;;;;1.75;1.75;;;;;11.97;79.58;98523.16;5035215;28;45696;-61
2022/04/07 05:57:21;;;;;;;;;2.00;2.00;;;;;11.98;79.54;98521.38;5016873;28;45324;-60
2022/04/07 05:59:47;;;;;;;;;3.00;2.00;;;;;12.00;79.43;98519.47;5035262;28;45394;-62
2022/04/07 06:02:12;;;;;;;;;3.50;2.00;;;;;12.02;80.05;98514.94;5035552;28;45582;-65
2022/04/07 06:04:39;;;;;;;;;2.75;2.75;;;;;12.03;79.19;98519.22;5035267;28;45587;-65
2022/04/07 06:07:04;;;;;;;;;2.00;2.00;;;;;12.03;79.16;98510.47;5035534;28;45292;-64
2022/04/07 06:09:29;;;;;;;;;1.00;1.00;;;;;12.05;78.77;98509.41;5035481;28;45788;-62
2022/04/07 06:11:55;;;;;;;;;1.50;1.00;;;;;12.08;78.33;98526.75;5035590;28;45169;-64
2022/04/07 06:14:20;;;;;;;;;3.00;2.00;;;;;12.10;78.04;98527.47;5035151;28;46102;-63
2022/04/07 06:16:45;;;;;;;;;3.00;2.00;;;;;12.10;77.86;98524.84;5035150;28;45431;-65
2022/04/07 06:19:11;;;;;;;;;1.75;1.00;;;;;12.12;77.95;98515.00;5035067;28;45455;-64
2022/04/07 06:21:36;;;;;;;;;1.50;1.00;;;;;12.14;77.60;98510.47;5035233;28;45511;-65
2022/04/07 06:24:01;;;;;;;;;5.50;3.00;;;;;12.15;77.58;98520.03;5035220;28;46288;-67
2022/04/07 06:26:27;;;;;;;;;3.00;2.00;;;;;12.16;77.33;98523.53;5034639;28;45412;-64
2022/04/07 06:28:52;;;;;;;;;3.25;3.00;;;;;12.15;77.03;98517.41;5034820;28;45854;-66
2022/04/07 06:31:18;;;;;;;;;1.25;1.25;;;;;12.16;77.19;98508.53;5035316;28;45422;-63
2022/04/07 06:33:43;;;;;;;;;4.00;2.00;;;;;12.17;77.38;98502.31;5017076;28;47711;-66
2022/04/07 06:36:09;;;;;;;;;2.75;1.25;;;;;12.21;77.17;98513.44;5033702;28;45343;-64
2022/04/07 06:38:34;;;;;;;;;5.75;1.00;;;;;12.17;77.58;98486.50;5035363;28;45403;-62
2022/04/07 06:41:00;;;;;;;;;3.00;1.25;;;;;12.16;77.93;98497.16;5035480;28;45461;-64
2022/04/07 06:43:26;;;;;;;;;2.50;2.00;;;;;12.15;78.47;98488.41;5034870;28;46534;-62
2022/04/07 06:45:52;;;;;;;;;5.00;1.75;;;;;12.10;78.66;98487.94;5034534;28;45297;-63
2022/04/07 06:48:17;;;;;;;;;2.00;2.00;;;;;12.09;78.73;98483.63;5016873;28;45344;-68
2022/04/07 06:50:44;;;;;;;;;2.75;1.50;;;;;12.08;78.58;98498.63;5035340;28;45459;-63
2022/04/07 06:53:11;;;;;;;;;2.00;2.00;;;;;12.10;78.84;98496.69;5034668;28;45429;-65
2022/04/07 06:55:37;;;;;;;;;3.50;2.75;;;;;12.13;79.21;98480.66;5034826;28;45414;-62
2022/04/07 06:58:06;;;;;;;;;1.75;1.75;;;;;12.18;79.13;98493.44;5019576;28;45454;-63
2022/04/07 07:00:34;;;;;;;;;2.00;2.00;;;;;12.22;79.33;98483.50;5038897;28;45538;-62
2022/04/07 07:03:02;;;;;;;;;1.50;1.50;;;;;12.23;79.08;98486.03;5049687;28;45897;-63
2022/04/07 07:05:30;;;;;;;;;3.75;2.00;;;;;12.25;78.71;98477.97;5057119;28;45984;-68
2022/04/07 07:07:56;;;;;;;;;3.25;1.50;;;;;12.26;79.10;98490.19;5058403;28;45241;-68
2022/04/07 07:10:24;;;;;;;;;1.50;1.50;;;;;12.25;78.52;98484.09;5062570;28;45563;-66
2022/04/07 07:12:51;;;;;;;;;0.00;0.00;;;;;12.27;78.84;98473.41;5064789;28;46956;-65
2022/04/07 07:15:17;;;;;;;;;2.50;1.00;;;;;12.23;79.12;98469.34;5061006;27;45510;-68
2022/04/07 07:17:42;;;;;;;;;3.00;0.75;;;;;12.29;78.97;98474.13;5042017;28;45448;-62
2022/04/07 07:20:12;;;;;;;;;1.75;1.75;;;;;12.30;78.74;98480.25;5076146;27;45393;-67
2022/04/07 07:22:42;;;;;;;;;0.75;0.75;;;;;12.33;79.07;98467.66;5057410;28;45379;-65
2022/04/07 07:25:09;;;;;;;;;1.50;1.00;;;;;12.40;79.30;98455.63;5055350;28;45295;-63
2022/04/07 07:27:43;;;;;;;;;3.25;2.00;;;;;12.48;79.41;98456.81;5055389;28;45422;-70
2022/04/07 07:30:10;;;;;;;;;1.00;1.00;;;;;12.50;78.98;98483.88;5055089;28;45458;-66
2022/04/07 07:32:37;;;;;;;;;6.00;6.00;;;;;12.50;78.95;98468.06;5042570;28;46284;-68
2022/04/07 07:35:04;;;;;;;;;2.25;2.00;;;;;12.51;79.66;98475.88;5035499;28;45429;-68
2022/04/07 07:37:29;;;;;;;;;2.00;2.00;;;;;12.49;79.56;98474.28;5034187;28;46044;-69
2022/04/07 07:39:55;;;;;;;;;1.00;1.00;;;;;12.49;79.73;98472.50;5033560;28;45653;-66
2022/04/07 07:42:21;;;;;;;;;1.25;1.25;;;;;12.46;79.59;98453.47;5018758;28;45686;-68
2022/04/07 07:44:46;;;;;;;;;2.75;0.25;;;;;12.56;79.65;98459.66;5036190;28;45438;-67
2022/04/07 07:47:11;;;;;;;;;1.00;1.00;;;;;12.69;79.20;98452.38;5037529;28;45440;-67
2022/04/07 07:49:37;;;;;;;;;1.00;0.00;;;;;12.90;78.92;98451.56;5037622;28;45360;-67
2022/04/07 07:52:02;;;;;;;;;3.00;0.00;;;;;13.02;77.95;98438.31;5036547;28;46131;-68
2022/04/07 07:54:28;;;;;;;;;0.00;0.00;;;;;13.06;77.57;98434.44;5019601;28;45800;-67
2022/04/07 07:56:54;;;;;;;;;0.00;0.00;;;;;13.14;77.23;98429.34;5037098;28;45470;-68
2022/04/07 07:59:20;;;;;;;;;0.00;0.00;;;;;13.19;76.97;98437.72;5019361;28;45617;-68
2022/04/07 08:01:48;;;;;;;;;0.00;0.00;;;;;13.21;77.24;98427.84;5037377;28;46353;-66
2022/04/07 08:04:15;;;;;;;;;0.75;0.75;;;;;13.24;77.44;98446.06;5037384;28;45247;-67
2022/04/07 08:06:41;;;;;;;;;0.50;0.50;;;;;13.34;77.03;98437.34;5037236;28;45294;-70
2022/04/07 08:09:08;;;;;;;;;0.50;0.00;;;;;13.41;76.82;98441.13;5036726;28;45348;-68
2022/04/07 08:11:33;;;;;;;;;0.00;0.00;;;;;13.43;76.61;98420.75;5037506;28;46232;-67
2022/04/07 08:13:59;;;;;;;;;0.00;0.00;;;;;13.40;76.15;98437.69;5037258;28;45304;-68
2022/04/07 08:16:25;;;;;;;;;1.00;1.00;;;;;13.38;76.45;98428.19;5035688;28;45419;-65
2022/04/07 08:18:50;;;;;;;;;1.00;0.00;;;;;13.36;77.32;98431.00;5037117;28;45306;-65
2022/04/07 08:21:15;;;;;;;;;0.25;0.25;;;;;13.36;77.10;98424.84;5036400;28;47607;-66
2022/04/07 08:23:41;;;;;;;;;1.50;0.00;;;;;13.42;77.35;98441.06;5037044;28;45327;-66
2022/04/07 08:26:06;;;;;;;;;0.00;0.00;;;;;13.57;76.73;98417.75;5037665;28;45352;-67
2022/04/07 08:28:32;;;;;;;;;0.00;0.00;;;;;13.71;76.34;98418.31;5019065;28;45598;-68
2022/04/07 08:30:57;;;;;;;;;0.00;0.00;;;;;13.81;75.61;98426.28;5036573;28;46010;-67
2022/04/07 08:33:25;;;;;;;;;0.50;0.50;;;;;13.96;75.03;98438.16;5036769;28;45451;-66
2022/04/07 08:35:54;;;;;;;;;0.00;0.00;;;;;14.13;74.17;98417.28;5036806;28;45401;-67
2022/04/07 08:38:19;;;;;;;;;0.00;0.00;;;;;14.31;73.15;98428.03;5036880;28;45596;-67
2022/04/07 08:40:50;;;;;;;;;2.00;1.00;;;;;14.38;73.14;98423.84;5036348;28;45730;-66
2022/04/07 08:43:16;;;;;;;;;1.00;1.00;;;;;14.51;72.21;98399.78;5018706;28;45442;-67
2022/04/07 08:45:43;;;;;;;;;0.00;0.00;;;;;14.64;71.96;98423.28;5036306;28;45742;-65
2022/04/07 08:48:10;;;;;;;;;0.00;0.00;;;;;14.73;71.21;98427.75;5037019;28;45310;-65
2022/04/07 08:50:39;;;;;;;;;0.00;0.00;;;;;14.82;70.99;98422.59;5036591;28;46139;-66
2022/04/07 08:53:05;;;;;;;;;1.00;1.00;;;;;14.88;71.01;98417.56;5018489;28;45303;-68
2022/04/07 08:55:30;;;;;;;;;1.00;1.00;;;;;14.98;70.78;98414.91;5036650;28;45309;-67
2022/04/07 08:57:56;;;;;;;;;2.25;1.00;;;;;15.03;69.91;98410.03;5036559;28;45571;-68
2022/04/07 09:00:21;;;;;;;;;0.50;0.50;;;;;15.11;69.13;98419.06;5036036;28;45969;-69
2022/04/07 09:02:46;;;;;;;;;1.00;1.00;;;;;15.10;68.75;98420.03;5036323;28;45304;-66
2022/04/07 09:05:12;;;;;;;;;1.25;1.00;;;;;15.10;69.41;98422.69;5036323;28;45400;-68
2022/04/07 09:07:38;;;;;;;;;0.00;0.00;;;;;15.19;68.44;98424.47;5036863;28;45479;-66
2022/04/07 09:10:05;;;;;;;;;1.00;1.00;;;;;15.28;68.31;98428.06;5036179;28;47184;-68
2022/04/07 09:12:31;;;;;;;;;2.00;0.50;;;;;15.32;68.27;98419.69;5035937;28;45352;-65
2022/04/07 09:14:59;;;;;;;;;1.00;1.00;;;;;15.38;68.35;98426.22;5036030;28;45407;-67
2022/04/07 09:17:26;;;;;;;;;1.25;1.25;;;;;15.43;68.53;98423.13;5036123;28;45486;-67
2022/04/07 09:19:53;;;;;;;;;0.00;0.00;;;;;15.48;67.87;98432.31;5035304;28;46181;-66
2022/04/07 09:22:28;;;;;;;;;0.00;0.00;;;;;15.49;67.38;98414.59;5035094;28;45335;-70
2022/04/07 09:24:53;;;;;;;;;0.25;0.00;;;;;15.52;67.05;98424.91;5036030;28;45289;-69
2022/04/07 09:27:18;;;;;;;;;1.00;1.00;;;;;15.61;67.21;98416.06;5036035;28;45367;-67
2022/04/07 09:29:46;;;;;;;;;1.00;1.00;;;;;15.69;66.81;98394.13;5035782;28;46010;-66
2022/04/07 09:32:19;;;;;;;;;0.00;0.00;;;;;15.79;66.32;98415.25;5036074;28;45409;-67
2022/04/07 09:34:46;;;;;;;;;0.00;0.00;;;;;15.86;66.45;98419.00;5036042;28;45431;-66
2022/04/07 09:37:11;;;;;;;;;1.00;1.00;;;;;15.97;66.01;98407.38;5036116;28;45471;-66
2022/04/07 09:39:39;;;;;;;;;0.00;0.00;;;;;16.10;66.03;98419.44;5034667;28;47069;-67
2022/04/07 09:42:27;;;;;;;;;0.50;0.50;;;;;16.15;64.61;98431.28;5036208;28;45398;-68
2022/04/07 09:44:59;;;;;;;;;2.00;0.50;;;;;16.14;65.54;98437.56;5035866;28;45320;-68
2022/04/07 09:47:33;;;;;;;;;0.25;0.25;;;;;16.16;64.72;98434.75;5035446;28;45278;-68
2022/04/07 09:50:01;;;;;;;;;0.50;0.50;;;;;16.21;63.76;98445.75;5035327;28;45317;-68
2022/04/07 09:52:27;;;;;;;;;1.00;1.00;;;;;16.23;63.78;98449.06;5035741;28;45439;-68
2022/04/07 09:55:01;;;;;;;;;0.00;0.00;;;;;16.18;63.88;98438.94;5017608;28;45310;-66
2022/04/07 09:57:27;;;;;;;;;2.00;2.00;;;;;16.15;64.96;98436.59;5018107;28;45383;-66
2022/04/07 09:59:54;;;;;;;;;2.00;2.00;;;;;16.13;65.65;98446.50;5035148;28;46416;-68
2022/04/07 10:02:20;;;;;;;;;2.00;2.00;;;;;16.16;65.92;98454.16;5034962;28;45351;-68
2022/04/07 10:04:46;;;;;;;;;1.75;1.75;;;;;16.20;65.83;98466.13;5035072;28;45345;-66
2022/04/07 10:07:13;;;;;;;;;1.00;1.00;;;;;16.21;65.13;98445.75;5035410;28;45277;-68
2022/04/07 10:09:40;;;;;;;;;1.00;1.00;;;;;16.15;66.07;98463.09;5035155;28;46221;-67
2022/04/07 10:12:08;;;;;;;;;2.00;2.00;;;;;16.06;66.20;98461.34;5034620;28;45557;-68
2022/04/07 10:14:34;;;;;;;;;2.00;1.50;;;;;15.94;66.32;98460.72;5034949;28;45344;-69
2022/04/07 10:17:00;;;;;;;;;4.50;2.00;;;;;15.80;67.03;98477.91;5035289;28;45582;-67
2022/04/07 10:19:28;;;;;;;;;8.25;3.00;;;;;15.53;74.95;98527.25;5034948;28;45986;-69
2022/04/07 10:22:21;;;;;;;;;5.75;3.25;;;;;14.65;87.97;98551.97;5035145;28;45280;-72
2022/04/07 10:24:51;;;;;;;;;4.25;3.00;;;;;13.76;89.47;98529.72;5035280;28;45205;-70
2022/04/07 10:27:22;;;;;;;;;3.00;3.00;;;;;13.37;93.29;98555.91;5035395;28;45430;-70
2022/04/07 10:30:11;;;;;;;;;1.75;0.00;;;;;13.16;94.98;98535.63;5034973;28;45289;-67
2022/04/07 10:32:37;;;;;;;;;1.25;1.25;;;;;13.08;95.37;98538.09;5036832;28;45314;-69
2022/04/07 10:35:03;;;;;;;;;2.00;2.00;;;;;13.07;95.16;98545.16;5038584;28;45316;-70
2022/04/07 10:37:47;;;;;;;;;3.00;3.00;;;;;13.08;93.08;98561.84;5038371;28;45328;-68
2022/04/07 10:40:45;;;;;;;;;2.00;2.00;;;;;13.14;89.66;98553.41;5038574;28;46171;-73
2022/04/07 10:43:17;;;;;;;;;2.00;2.00;;;;;13.21;86.43;98565.13;5020897;28;45952;-69
2022/04/07 10:45:44;;;;;;;;;1.00;1.00;;;;;13.25;80.71;98590.31;5038880;28;45297;-70
2022/04/07 10:48:29;;;;;;;;;1.00;1.00;;;;;13.32;78.77;98571.31;5038580;28;45290;-70
2022/04/07 10:51:08;;;;;;;;;0.00;0.00;;;;;13.42;78.13;98575.75;5038138;28;46956;-67
2022/04/07 10:53:39;;;;;;;;;1.00;1.00;;;;;13.53;75.92;98592.47;5038062;28;45320;-69
2022/04/07 10:56:06;;;;;;;;;1.00;1.00;;;;;13.64;75.86;98586.25;5038668;28;45467;-67
2022/04/07 10:58:54;;;;;;;;;1.00;1.00;;;;;13.76;74.68;98584.41;5038661;28;45506;-68
2022/04/07 11:01:28;;;;;;;;;1.00;1.00;;;;;13.92;75.87;98576.00;5038785;28;46476;-69
2022/04/07 11:07:02;;;;;;;;;2.50;0.50;;;;;14.20;75.56;98595.56;5038744;28;45284;-70
2022/04/07 11:09:48;;;;;;;;;2.25;2.00;;;;;14.29;73.93;98588.66;5020192;28;45604;-71
2022/04/07 11:12:32;;;;;;;;;1.00;1.00;;;;;14.30;74.26;98604.38;5024003;28;46580;-67
2022/04/07 11:15:01;;;;;;;;;2.00;2.00;;;;;14.45;72.84;98582.84;5038090;28;45296;-68
2022/04/07 11:17:43;;;;;;;;;1.25;1.00;;;;;14.64;71.54;98594.44;5020183;28;45346;-69
2022/04/07 11:20:26;;;;;;;;;1.00;1.00;;;;;14.71;71.08;98598.25;5038441;28;45377;-69
2022/04/07 11:22:55;;;;;;;;;2.00;1.00;;;;;14.82;69.57;98613.16;5037835;28;45380;-68
2022/04/07 11:25:42;;;;;;;;;3.25;2.00;;;;;14.91;67.66;98633.53;5003429;28;45372;-68
2022/04/07 11:28:12;;;;;;;;;0.75;0.75;;;;;14.90;66.36;98624.75;5048887;28;45560;-70
2022/04/07 11:30:54;;;;;;;;;1.00;1.00;;;;;14.79;65.61;98627.50;5055649;28;45925;-70
2022/04/07 11:35:59;;;;;;;;;1.00;1.00;;;;;14.63;64.41;98646.50;5055137;28;45490;-69
2022/04/07 11:38:28;;;;;;;;;0.00;0.00;;;;;14.60;62.62;98650.28;5054181;28;45485;-69
2022/04/07 11:41:02;;;;;;;;;1.75;1.00;;;;;14.56;63.45;98640.94;5055486;28;45562;-69